Corning, AR

11:12 AM CDT on September 30, 2016 (GMT -0500)
Corning

Weather History for K4M9 - March, 2013

Change the Weather History Date:

Sunday, March 31, 2013

  Actual Average (KARG) Record (KARG)
Temperature  
Mean Temperature 57 °F -  
Max Temperature 64 °F 63 °F 82 °F (2012)
Min Temperature 50 °F 45 °F 33 °F (2003)
Degree Days  
Heating Degree Days 8    
Growing Degree Days 7 (Base 50)    
Moisture  
Dew Point 50 °F    
Average Humidity 86    
Maximum Humidity 100    
Minimum Humidity 52    
Precipitation  
Precipitation 0.11 in - - ()
Sea Level Pressure  
Sea Level Pressure 29.92 in    
Wind  
Wind Speed 4 mph (WSW)    
Max Wind Speed 12 mph    
Max Gust Speed -    
Visibility 6 miles    
Events Fog , Rain    
Averages and records for this station are not official NWS values.
T = Trace of Precipitation, MM = Missing Value Source: NWS Daily Summary

Daily Weather History Graph

Daily Weather History Graph

Search for Another Location

Airport or City:

Trip Planner

Search our weather history database for the weather conditions in past years. The results will help you decide how hot, cold, wet, or windy it might be!

Date:

Astronomy

Mar. 31, 2013 Rise Set
Actual Time 6:49 AM CDT 7:24 PM CDT
Civil Twilight 6:23 AM CDT 7:50 PM CDT
Nautical Twilight 5:53 AM CDT 8:20 PM CDT
Astronomical Twilight 5:22 AM CDT 8:51 PM CDT
Moon No Moon Rise 9:44 AM CDT (3/31)
Length of Visible Light 13h 26m
Length of Day
12h 34m
Waning Gibbous, 77% of the Moon is Illuminated
Mar 31
Waning Gibbous
Apr 2
Last Quarter
Apr 10
New
Apr 18
First Quarter
Apr 25
Full

Hourly Weather History & Observations

Time (CDT) Temp. Dew Point Humidity Pressure Visibility Wind Dir Wind Speed Gust Speed Precip Events Conditions
12:15 AM 53.6 °F 53.6 °F 100% 29.93 in 0.5 mi South 4.6 mph - N/A Fog Fog
12:55 AM 51.8 °F 51.8 °F 100% 29.91 in 0.5 mi Calm Calm - N/A Fog Fog
1:15 AM 50.0 °F 50.0 °F 100% 29.91 in 0.2 mi ENE 3.5 mph - N/A Fog Fog
1:35 AM 50.0 °F 50.0 °F 100% 29.91 in 0.2 mi NNW 3.5 mph - N/A Fog Fog
1:55 AM 50.0 °F 50.0 °F 100% 29.92 in 0.2 mi NNW 3.5 mph - N/A Fog Fog
2:15 AM 50.0 °F 50.0 °F 100% 29.92 in 0.2 mi Calm Calm - N/A Fog Fog
2:35 AM 50.0 °F 50.0 °F 100% 29.90 in 0.2 mi Calm Calm - N/A Fog Fog
2:55 AM 50.0 °F 50.0 °F 100% 29.89 in 0.2 mi Calm Calm - N/A Fog Fog
3:15 AM 50.0 °F 50.0 °F 100% 29.89 in 0.2 mi Calm Calm - N/A Fog Fog
3:35 AM 51.8 °F 51.8 °F 100% 29.89 in 0.2 mi Calm Calm - N/A Fog Fog
3:55 AM 51.8 °F 51.8 °F 100% 29.89 in 0.2 mi North 3.5 mph - N/A Fog Fog
4:15 AM 50.0 °F 50.0 °F 100% 29.87 in 0.2 mi Calm Calm - N/A Fog Fog
4:35 AM 50.0 °F 50.0 °F 100% 29.88 in 0.2 mi NNW 4.6 mph - N/A Fog Fog
4:55 AM 51.8 °F 51.8 °F 100% 29.88 in 1.8 mi NNW 3.5 mph - N/A   Overcast
5:15 AM 50.0 °F 50.0 °F 100% 29.88 in 1.0 mi North 4.6 mph - N/A   Overcast
5:35 AM 51.8 °F 51.8 °F 100% 29.87 in 3.0 mi North 8.1 mph - N/A   Overcast
5:55 AM 51.8 °F 51.8 °F 100% 29.88 in 5.0 mi NNE 5.8 mph - N/A   Overcast
6:15 AM 50.0 °F 50.0 °F 100% 29.90 in 6.0 mi North 6.9 mph - N/A   Overcast
6:35 AM 50.0 °F 50.0 °F 100% 29.92 in 7.0 mi NE 4.6 mph - N/A   Overcast
6:55 AM 50.0 °F 50.0 °F 100% 29.92 in 4.0 mi ENE 5.8 mph - N/A   Overcast
7:15 AM 50.0 °F 50.0 °F 100% 29.94 in 3.0 mi NE 4.6 mph - N/A   Overcast
7:35 AM 50.0 °F 50.0 °F 100% 29.94 in 1.8 mi NNE 5.8 mph - N/A   Overcast
7:55 AM 50.0 °F 50.0 °F 100% 29.95 in 1.5 mi NE 10.4 mph - N/A   Mostly Cloudy
8:15 AM 50.0 °F 50.0 °F 100% 29.95 in 2.5 mi NE 10.4 mph - N/A Rain Light Rain
8:35 AM 50.0 °F 50.0 °F 100% 29.98 in 2.0 mi NNW 4.6 mph - 0.04 in Rain Light Rain
8:55 AM 50.0 °F 50.0 °F 100% 29.98 in 1.0 mi NNW 4.6 mph - 0.08 in Rain Rain
9:15 AM 50.0 °F 50.0 °F 100% 29.98 in 1.8 mi Calm Calm - 0.01 in Rain Light Rain
9:35 AM 50.0 °F 50.0 °F 100% 29.99 in 3.0 mi NNW 5.8 mph - 0.02 in Rain Light Rain
9:55 AM 50.0 °F 50.0 °F 100% 30.00 in 2.5 mi NW 3.5 mph - 0.03 in Rain Light Rain
10:15 AM 51.8 °F 51.8 °F 100% 29.99 in 2.5 mi Calm Calm - N/A Rain Light Rain
10:35 AM 51.8 °F 51.8 °F 100% 29.97 in 4.0 mi East 4.6 mph - N/A   Clear
10:55 AM 53.6 °F 53.6 °F 100% 29.94 in 5.0 mi ESE 5.8 mph - N/A   Clear
11:15 AM 55.4 °F 55.4 °F 100% 29.93 in 7.0 mi SE 8.1 mph - N/A   Clear
11:35 AM 55.4 °F 55.4 °F 100% 29.94 in 10.0 mi Calm Calm - N/A   Clear
11:55 AM 57.2 °F 53.6 °F 88% 29.95 in 10.0 mi Calm Calm - N/A   Clear
12:15 PM 57.2 °F 53.6 °F 88% 29.95 in 10.0 mi Calm Calm - N/A   Clear
12:35 PM 57.2 °F 51.8 °F 82% 29.95 in 10.0 mi NE 3.5 mph - N/A   Clear
12:55 PM 59.0 °F 51.8 °F 77% 29.95 in 10.0 mi Calm Calm - N/A   Partly Cloudy
1:15 PM 59.0 °F 50.0 °F 72% 29.96 in 10.0 mi WNW 4.6 mph - N/A   Partly Cloudy
1:35 PM 59.0 °F 50.0 °F 72% 29.94 in 10.0 mi North 3.5 mph - N/A   Clear
1:55 PM 59.0 °F 48.2 °F 67% 29.94 in 10.0 mi Calm Calm - N/A   Clear
2:15 PM 60.8 °F 50.0 °F 68% 29.93 in 10.0 mi North 3.5 mph - N/A   Clear
2:35 PM 60.8 °F 48.2 °F 63% 29.94 in 10.0 mi Calm Calm - N/A   Clear
2:55 PM 62.6 °F 50.0 °F 63% 29.94 in 10.0 mi West 3.5 mph - N/A   Clear
3:15 PM 62.6 °F 48.2 °F 59% 29.93 in 10.0 mi NNW 4.6 mph - N/A   Clear
3:35 PM 62.6 °F 48.2 °F 59% 29.93 in 10.0 mi SW 6.9 mph - N/A   Clear
3:55 PM 64.4 °F 48.2 °F 56% 29.92 in 10.0 mi South 3.5 mph - N/A   Clear
4:15 PM 64.4 °F 48.2 °F 56% 29.91 in 10.0 mi South 4.6 mph - N/A   Clear
4:35 PM 64.4 °F 48.2 °F 56% 29.90 in 10.0 mi WSW 5.8 mph - N/A   Clear
4:55 PM 64.4 °F 46.4 °F 52% 29.90 in 10.0 mi SW 5.8 mph - N/A   Clear
5:15 PM 64.4 °F 48.2 °F 56% 29.89 in 10.0 mi SSW 9.2 mph - N/A   Clear
5:35 PM 64.4 °F 46.4 °F 52% 29.89 in 10.0 mi SSW 8.1 mph - N/A   Clear
5:55 PM 64.4 °F 48.2 °F 56% 29.89 in 10.0 mi South 10.4 mph - N/A   Clear
6:15 PM 62.6 °F 50.0 °F 63% 29.89 in 10.0 mi South 8.1 mph - N/A   Clear
6:35 PM 62.6 °F 48.2 °F 59% 29.89 in 10.0 mi South 9.2 mph - N/A   Clear
6:55 PM 59.0 °F 50.0 °F 72% 29.89 in 10.0 mi South 8.1 mph - N/A   Clear
7:15 PM 59.0 °F 50.0 °F 72% 29.89 in 10.0 mi South 10.4 mph - N/A   Clear
7:35 PM 57.2 °F 50.0 °F 77% 29.90 in 10.0 mi South 9.2 mph - N/A   Clear
7:55 PM 55.4 °F 50.0 °F 82% 29.90 in 10.0 mi SSW 8.1 mph - N/A   Clear
8:15 PM 55.4 °F 50.0 °F 82% 29.91 in 10.0 mi South 6.9 mph - N/A   Clear
8:35 PM 55.4 °F 50.0 °F 82% 29.91 in 10.0 mi South 6.9 mph - N/A   Clear
8:55 PM 53.6 °F 50.0 °F 88% 29.92 in 10.0 mi SSW 6.9 mph - N/A   Clear
9:15 PM 53.6 °F 50.0 °F 88% 29.93 in 10.0 mi SW 6.9 mph - N/A   Clear
9:35 PM 51.8 °F 50.0 °F 94% 29.93 in 10.0 mi SW 8.1 mph - N/A   Clear
9:55 PM 53.6 °F 50.0 °F 88% 29.94 in 10.0 mi SW 6.9 mph - N/A   Clear
10:15 PM 53.6 °F 50.0 °F 88% 29.94 in 10.0 mi WSW 5.8 mph - N/A   Clear
10:35 PM 53.6 °F 50.0 °F 88% 29.94 in 10.0 mi WSW 5.8 mph - N/A   Clear
10:55 PM 51.8 °F 50.0 °F 94% 29.94 in 10.0 mi SW 10.4 mph - N/A   Clear
11:15 PM 51.8 °F 50.0 °F 94% 29.94 in 10.0 mi WSW 6.9 mph - N/A   Clear
11:35 PM 51.8 °F 50.0 °F 94% 29.94 in 10.0 mi WSW 11.5 mph - N/A   Clear
11:55 PM 51.8 °F 50.0 °F 94% 29.94 in 10.0 mi WSW 10.4 mph - N/A   Clear